sensor_id;sensor_type;location;lat;lon;timestamp;P1;durP1;ratioP1;P2;durP2;ratioP2
35434;SDS011;21556;55.782;37.528;2023-04-25T00:00:22;11.60;;;5.75;;
35434;SDS011;21556;55.782;37.528;2023-04-25T00:02:50;11.43;;;5.78;;
35434;SDS011;21556;55.782;37.528;2023-04-25T00:05:16;11.35;;;5.75;;
35434;SDS011;21556;55.782;37.528;2023-04-25T00:07:46;12.13;;;5.47;;
35434;SDS011;21556;55.782;37.528;2023-04-25T00:10:13;11.32;;;5.20;;
35434;SDS011;21556;55.782;37.528;2023-04-25T00:12:42;12.20;;;4.95;;
35434;SDS011;21556;55.782;37.528;2023-04-25T00:15:08;7.65;;;4.72;;
35434;SDS011;21556;55.782;37.528;2023-04-25T00:17:36;9.85;;;5.75;;
35434;SDS011;21556;55.782;37.528;2023-04-25T00:20:04;9.05;;;5.07;;
35434;SDS011;21556;55.782;37.528;2023-04-25T00:22:32;13.25;;;5.15;;
35434;SDS011;21556;55.782;37.528;2023-04-25T00:24:59;9.73;;;4.78;;
35434;SDS011;21556;55.782;37.528;2023-04-25T00:27:26;10.23;;;5.07;;
35434;SDS011;21556;55.782;37.528;2023-04-25T00:29:52;15.35;;;5.63;;
35434;SDS011;21556;55.782;37.528;2023-04-25T00:32:18;10.68;;;5.38;;
35434;SDS011;21556;55.782;37.528;2023-04-25T00:34:44;17.52;;;5.63;;
35434;SDS011;21556;55.782;37.528;2023-04-25T00:37:12;10.40;;;4.70;;
35434;SDS011;21556;55.782;37.528;2023-04-25T00:39:42;14.50;;;5.47;;
35434;SDS011;21556;55.782;37.528;2023-04-25T00:42:09;13.73;;;4.85;;
35434;SDS011;21556;55.782;37.528;2023-04-25T00:44:35;14.75;;;5.75;;
35434;SDS011;21556;55.782;37.528;2023-04-25T00:47:05;14.77;;;5.82;;
35434;SDS011;21556;55.782;37.528;2023-04-25T00:49:34;8.70;;;4.68;;
35434;SDS011;21556;55.782;37.528;2023-04-25T00:52:00;8.18;;;4.55;;
35434;SDS011;21556;55.782;37.528;2023-04-25T00:54:26;9.57;;;4.47;;
35434;SDS011;21556;55.782;37.528;2023-04-25T00:56:53;7.68;;;4.93;;
35434;SDS011;21556;55.782;37.528;2023-04-25T00:59:19;12.15;;;5.43;;
35434;SDS011;21556;55.782;37.528;2023-04-25T01:01:46;12.38;;;5.32;;
35434;SDS011;21556;55.782;37.528;2023-04-25T01:04:12;8.18;;;5.93;;
35434;SDS011;21556;55.782;37.528;2023-04-25T01:06:39;10.77;;;5.68;;
35434;SDS011;21556;55.782;37.528;2023-04-25T01:09:05;12.10;;;5.15;;
35434;SDS011;21556;55.782;37.528;2023-04-25T01:11:32;8.10;;;4.82;;
35434;SDS011;21556;55.782;37.528;2023-04-25T01:13:58;12.15;;;5.32;;
35434;SDS011;21556;55.782;37.528;2023-04-25T01:16:24;16.17;;;5.10;;
35434;SDS011;21556;55.782;37.528;2023-04-25T01:18:51;15.85;;;5.30;;
35434;SDS011;21556;55.782;37.528;2023-04-25T01:21:18;16.35;;;5.85;;
35434;SDS011;21556;55.782;37.528;2023-04-25T01:26:12;13.73;;;5.65;;
35434;SDS011;21556;55.782;37.528;2023-04-25T01:28:39;14.27;;;6.10;;
35434;SDS011;21556;55.782;37.528;2023-04-25T01:31:07;12.70;;;5.13;;
35434;SDS011;21556;55.782;37.528;2023-04-25T01:33:38;10.07;;;5.13;;
35434;SDS011;21556;55.782;37.528;2023-04-25T01:36:04;12.60;;;5.00;;
35434;SDS011;21556;55.782;37.528;2023-04-25T01:38:33;10.73;;;5.28;;
35434;SDS011;21556;55.782;37.528;2023-04-25T01:41:00;10.95;;;5.97;;
35434;SDS011;21556;55.782;37.528;2023-04-25T01:43:27;7.80;;;5.22;;
35434;SDS011;21556;55.782;37.528;2023-04-25T01:45:53;15.77;;;4.95;;
35434;SDS011;21556;55.782;37.528;2023-04-25T01:48:19;5.93;;;4.53;;
35434;SDS011;21556;55.782;37.528;2023-04-25T01:50:46;9.43;;;5.00;;
35434;SDS011;21556;55.782;37.528;2023-04-25T01:53:13;12.80;;;5.15;;
35434;SDS011;21556;55.782;37.528;2023-04-25T01:55:42;7.30;;;4.35;;
35434;SDS011;21556;55.782;37.528;2023-04-25T01:58:13;9.60;;;5.90;;
35434;SDS011;21556;55.782;37.528;2023-04-25T02:01:05;11.73;;;5.05;;
35434;SDS011;21556;55.782;37.528;2023-04-25T02:03:39;10.90;;;4.97;;
35434;SDS011;21556;55.782;37.528;2023-04-25T02:06:09;8.32;;;5.13;;
35434;SDS011;21556;55.782;37.528;2023-04-25T02:08:39;13.25;;;5.65;;
35434;SDS011;21556;55.782;37.528;2023-04-25T02:11:05;13.02;;;4.93;;
35434;SDS011;21556;55.782;37.528;2023-04-25T02:13:40;9.93;;;4.45;;
35434;SDS011;21556;55.782;37.528;2023-04-25T02:16:28;11.75;;;4.82;;
35434;SDS011;21556;55.782;37.528;2023-04-25T02:18:56;11.18;;;5.15;;
35434;SDS011;21556;55.782;37.528;2023-04-25T02:21:22;13.38;;;5.80;;
35434;SDS011;21556;55.782;37.528;2023-04-25T02:23:49;12.77;;;5.43;;
35434;SDS011;21556;55.782;37.528;2023-04-25T02:26:17;11.95;;;5.03;;
35434;SDS011;21556;55.782;37.528;2023-04-25T02:28:43;12.25;;;5.55;;
35434;SDS011;21556;55.782;37.528;2023-04-25T02:31:09;13.38;;;5.72;;
35434;SDS011;21556;55.782;37.528;2023-04-25T02:33:37;10.73;;;5.85;;
35434;SDS011;21556;55.782;37.528;2023-04-25T02:36:05;11.90;;;5.50;;
35434;SDS011;21556;55.782;37.528;2023-04-25T02:38:31;8.63;;;4.95;;
35434;SDS011;21556;55.782;37.528;2023-04-25T02:40:59;11.00;;;5.05;;
35434;SDS011;21556;55.782;37.528;2023-04-25T02:43:25;11.05;;;5.05;;
35434;SDS011;21556;55.782;37.528;2023-04-25T02:45:53;10.73;;;5.97;;
35434;SDS011;21556;55.782;37.528;2023-04-25T02:48:22;10.10;;;5.25;;
35434;SDS011;21556;55.782;37.528;2023-04-25T02:50:50;10.95;;;5.13;;
35434;SDS011;21556;55.782;37.528;2023-04-25T02:53:16;6.93;;;4.80;;
35434;SDS011;21556;55.782;37.528;2023-04-25T02:55:47;12.85;;;4.78;;
35434;SDS011;21556;55.782;37.528;2023-04-25T02:58:13;10.63;;;5.13;;
35434;SDS011;21556;55.782;37.528;2023-04-25T03:00:46;12.35;;;4.90;;
35434;SDS011;21556;55.782;37.528;2023-04-25T03:03:12;11.35;;;5.90;;
35434;SDS011;21556;55.782;37.528;2023-04-25T03:05:39;14.15;;;4.85;;
35434;SDS011;21556;55.782;37.528;2023-04-25T03:08:05;12.05;;;5.25;;
35434;SDS011;21556;55.782;37.528;2023-04-25T03:10:32;14.03;;;5.90;;
35434;SDS011;21556;55.782;37.528;2023-04-25T03:13:03;13.77;;;5.75;;
35434;SDS011;21556;55.782;37.528;2023-04-25T03:15:28;9.55;;;5.15;;
35434;SDS011;21556;55.782;37.528;2023-04-25T03:17:54;12.85;;;4.85;;
35434;SDS011;21556;55.782;37.528;2023-04-25T03:20:23;11.32;;;5.95;;
35434;SDS011;21556;55.782;37.528;2023-04-25T03:22:49;14.55;;;5.55;;
35434;SDS011;21556;55.782;37.528;2023-04-25T03:25:17;14.73;;;5.03;;
35434;SDS011;21556;55.782;37.528;2023-04-25T03:27:45;14.32;;;5.63;;
35434;SDS011;21556;55.782;37.528;2023-04-25T03:30:13;8.07;;;4.40;;
35434;SDS011;21556;55.782;37.528;2023-04-25T03:32:40;14.20;;;4.43;;
35434;SDS011;21556;55.782;37.528;2023-04-25T03:35:08;11.25;;;4.90;;
35434;SDS011;21556;55.782;37.528;2023-04-25T03:37:34;13.52;;;4.82;;
35434;SDS011;21556;55.782;37.528;2023-04-25T03:40:03;14.45;;;5.10;;
35434;SDS011;21556;55.782;37.528;2023-04-25T03:42:49;15.88;;;5.13;;
35434;SDS011;21556;55.782;37.528;2023-04-25T03:45:15;12.52;;;5.00;;
35434;SDS011;21556;55.782;37.528;2023-04-25T03:47:41;10.45;;;5.13;;
35434;SDS011;21556;55.782;37.528;2023-04-25T03:50:07;9.95;;;4.57;;
35434;SDS011;21556;55.782;37.528;2023-04-25T03:52:36;10.55;;;5.25;;
35434;SDS011;21556;55.782;37.528;2023-04-25T03:55:02;11.48;;;4.93;;
35434;SDS011;21556;55.782;37.528;2023-04-25T03:57:30;10.68;;;5.47;;
35434;SDS011;21556;55.782;37.528;2023-04-25T03:59:58;13.85;;;5.25;;
35434;SDS011;21556;55.782;37.528;2023-04-25T04:02:24;11.77;;;5.55;;
35434;SDS011;21556;55.782;37.528;2023-04-25T04:04:52;11.98;;;5.82;;
35434;SDS011;21556;55.782;37.528;2023-04-25T04:07:18;10.80;;;5.50;;
35434;SDS011;21556;55.782;37.528;2023-04-25T04:09:48;13.05;;;5.93;;
35434;SDS011;21556;55.782;37.528;2023-04-25T04:12:24;15.48;;;6.57;;
35434;SDS011;21556;55.782;37.528;2023-04-25T04:14:51;15.27;;;6.10;;
35434;SDS011;21556;55.782;37.528;2023-04-25T04:17:17;16.30;;;7.18;;
35434;SDS011;21556;55.782;37.528;2023-04-25T04:19:44;18.75;;;7.28;;
35434;SDS011;21556;55.782;37.528;2023-04-25T04:22:17;15.40;;;7.95;;
35434;SDS011;21556;55.782;37.528;2023-04-25T04:24:45;16.33;;;7.67;;
35434;SDS011;21556;55.782;37.528;2023-04-25T04:27:18;13.57;;;6.85;;
35434;SDS011;21556;55.782;37.528;2023-04-25T04:29:56;15.05;;;7.45;;
35434;SDS011;21556;55.782;37.528;2023-04-25T04:32:32;19.00;;;8.10;;
35434;SDS011;21556;55.782;37.528;2023-04-25T04:35:00;14.35;;;8.45;;
35434;SDS011;21556;55.782;37.528;2023-04-25T04:37:29;16.10;;;8.40;;
35434;SDS011;21556;55.782;37.528;2023-04-25T04:39:57;15.48;;;8.68;;
35434;SDS011;21556;55.782;37.528;2023-04-25T04:42:34;22.90;;;9.32;;
35434;SDS011;21556;55.782;37.528;2023-04-25T04:45:10;19.60;;;8.68;;
35434;SDS011;21556;55.782;37.528;2023-04-25T04:47:45;13.57;;;8.43;;
35434;SDS011;21556;55.782;37.528;2023-04-25T04:50:33;16.25;;;9.50;;
35434;SDS011;21556;55.782;37.528;2023-04-25T04:53:20;16.80;;;9.98;;
35434;SDS011;21556;55.782;37.528;2023-04-25T04:55:49;16.00;;;9.25;;
35434;SDS011;21556;55.782;37.528;2023-04-25T04:58:36;16.38;;;9.93;;
35434;SDS011;21556;55.782;37.528;2023-04-25T05:01:20;11.82;;;9.55;;
35434;SDS011;21556;55.782;37.528;2023-04-25T05:04:13;17.90;;;10.07;;
35434;SDS011;21556;55.782;37.528;2023-04-25T05:07:18;15.23;;;10.05;;
35434;SDS011;21556;55.782;37.528;2023-04-25T05:09:53;20.48;;;10.13;;
35434;SDS011;21556;55.782;37.528;2023-04-25T05:12:34;14.25;;;9.10;;
35434;SDS011;21556;55.782;37.528;2023-04-25T05:15:13;19.42;;;10.40;;
35434;SDS011;21556;55.782;37.528;2023-04-25T05:17:51;16.05;;;10.27;;
35434;SDS011;21556;55.782;37.528;2023-04-25T05:20:46;17.08;;;11.15;;
35434;SDS011;21556;55.782;37.528;2023-04-25T05:23:35;12.77;;;10.18;;
35434;SDS011;21556;55.782;37.528;2023-04-25T05:26:12;17.15;;;10.45;;
35434;SDS011;21556;55.782;37.528;2023-04-25T05:29:18;22.27;;;10.05;;
35434;SDS011;21556;55.782;37.528;2023-04-25T05:32:03;18.88;;;10.13;;
35434;SDS011;21556;55.782;37.528;2023-04-25T05:34:31;14.82;;;10.60;;
35434;SDS011;21556;55.782;37.528;2023-04-25T05:37:04;15.68;;;9.90;;
35434;SDS011;21556;55.782;37.528;2023-04-25T05:39:32;18.67;;;9.95;;
35434;SDS011;21556;55.782;37.528;2023-04-25T05:42:25;17.92;;;10.70;;
35434;SDS011;21556;55.782;37.528;2023-04-25T05:45:09;16.20;;;8.52;;
35434;SDS011;21556;55.782;37.528;2023-04-25T05:47:48;18.15;;;9.07;;
35434;SDS011;21556;55.782;37.528;2023-04-25T05:50:32;16.95;;;9.43;;
35434;SDS011;21556;55.782;37.528;2023-04-25T05:53:18;12.68;;;9.00;;
35434;SDS011;21556;55.782;37.528;2023-04-25T05:55:57;14.82;;;8.32;;
35434;SDS011;21556;55.782;37.528;2023-04-25T05:58:28;16.60;;;8.32;;
35434;SDS011;21556;55.782;37.528;2023-04-25T06:01:09;16.52;;;8.50;;
35434;SDS011;21556;55.782;37.528;2023-04-25T06:03:39;16.02;;;8.95;;
35434;SDS011;21556;55.782;37.528;2023-04-25T06:06:09;19.25;;;8.40;;
35434;SDS011;21556;55.782;37.528;2023-04-25T06:08:36;16.00;;;8.57;;
35434;SDS011;21556;55.782;37.528;2023-04-25T06:11:04;16.63;;;8.57;;
35434;SDS011;21556;55.782;37.528;2023-04-25T06:13:31;13.43;;;7.80;;
35434;SDS011;21556;55.782;37.528;2023-04-25T06:15:58;13.15;;;7.07;;
35434;SDS011;21556;55.782;37.528;2023-04-25T06:18:26;17.23;;;7.30;;
35434;SDS011;21556;55.782;37.528;2023-04-25T06:20:52;11.27;;;6.45;;
35434;SDS011;21556;55.782;37.528;2023-04-25T06:23:18;11.93;;;7.03;;
35434;SDS011;21556;55.782;37.528;2023-04-25T06:26:01;10.65;;;6.82;;
35434;SDS011;21556;55.782;37.528;2023-04-25T06:28:31;15.10;;;6.72;;
35434;SDS011;21556;55.782;37.528;2023-04-25T06:30:58;17.05;;;7.65;;
35434;SDS011;21556;55.782;37.528;2023-04-25T06:33:26;14.10;;;6.28;;
35434;SDS011;21556;55.782;37.528;2023-04-25T06:35:54;12.45;;;6.18;;
35434;SDS011;21556;55.782;37.528;2023-04-25T06:38:25;13.05;;;6.65;;
35434;SDS011;21556;55.782;37.528;2023-04-25T06:40:52;19.70;;;6.67;;
35434;SDS011;21556;55.782;37.528;2023-04-25T06:43:19;8.77;;;5.35;;
35434;SDS011;21556;55.782;37.528;2023-04-25T06:45:54;16.80;;;5.35;;
35434;SDS011;21556;55.782;37.528;2023-04-25T06:48:22;14.30;;;5.68;;
35434;SDS011;21556;55.782;37.528;2023-04-25T06:50:51;11.15;;;6.22;;
35434;SDS011;21556;55.782;37.528;2023-04-25T06:53:21;10.75;;;4.30;;
35434;SDS011;21556;55.782;37.528;2023-04-25T06:55:55;11.45;;;4.75;;
35434;SDS011;21556;55.782;37.528;2023-04-25T06:58:26;6.50;;;4.50;;
35434;SDS011;21556;55.782;37.528;2023-04-25T07:01:15;6.63;;;4.95;;
35434;SDS011;21556;55.782;37.528;2023-04-25T07:03:42;6.78;;;4.78;;
35434;SDS011;21556;55.782;37.528;2023-04-25T07:06:14;10.10;;;4.82;;
35434;SDS011;21556;55.782;37.528;2023-04-25T07:08:41;6.40;;;4.60;;
35434;SDS011;21556;55.782;37.528;2023-04-25T07:11:07;11.00;;;4.00;;
35434;SDS011;21556;55.782;37.528;2023-04-25T07:13:32;9.65;;;3.97;;
35434;SDS011;21556;55.782;37.528;2023-04-25T07:15:59;7.97;;;4.35;;
35434;SDS011;21556;55.782;37.528;2023-04-25T07:18:27;9.05;;;4.80;;
35434;SDS011;21556;55.782;37.528;2023-04-25T07:20:53;8.60;;;4.18;;
35434;SDS011;21556;55.782;37.528;2023-04-25T07:23:21;10.52;;;5.05;;
35434;SDS011;21556;55.782;37.528;2023-04-25T07:25:47;9.88;;;5.22;;
35434;SDS011;21556;55.782;37.528;2023-04-25T07:28:18;11.77;;;5.20;;
35434;SDS011;21556;55.782;37.528;2023-04-25T07:33:12;9.20;;;4.88;;
35434;SDS011;21556;55.782;37.528;2023-04-25T07:35:40;13.15;;;5.10;;
35434;SDS011;21556;55.782;37.528;2023-04-25T07:38:06;10.35;;;5.70;;
35434;SDS011;21556;55.782;37.528;2023-04-25T07:40:34;13.27;;;5.57;;
35434;SDS011;21556;55.782;37.528;2023-04-25T07:43:05;14.18;;;6.57;;
35434;SDS011;21556;55.782;37.528;2023-04-25T07:45:43;11.40;;;5.80;;
35434;SDS011;21556;55.782;37.528;2023-04-25T07:48:10;8.20;;;4.90;;
35434;SDS011;21556;55.782;37.528;2023-04-25T07:50:38;8.38;;;4.65;;
35434;SDS011;21556;55.782;37.528;2023-04-25T07:53:04;8.23;;;5.30;;
35434;SDS011;21556;55.782;37.528;2023-04-25T07:55:37;9.32;;;5.07;;
35434;SDS011;21556;55.782;37.528;2023-04-25T07:58:10;7.93;;;4.72;;
35434;SDS011;21556;55.782;37.528;2023-04-25T08:00:39;14.32;;;5.88;;
35434;SDS011;21556;55.782;37.528;2023-04-25T08:03:25;13.65;;;4.50;;
35434;SDS011;21556;55.782;37.528;2023-04-25T08:05:52;15.38;;;4.93;;
35434;SDS011;21556;55.782;37.528;2023-04-25T08:08:19;10.70;;;4.97;;
35434;SDS011;21556;55.782;37.528;2023-04-25T08:10:45;10.25;;;4.75;;
35434;SDS011;21556;55.782;37.528;2023-04-25T08:13:15;12.23;;;5.25;;
35434;SDS011;21556;55.782;37.528;2023-04-25T08:15:48;12.27;;;6.03;;
35434;SDS011;21556;55.782;37.528;2023-04-25T08:18:14;10.85;;;5.18;;
35434;SDS011;21556;55.782;37.528;2023-04-25T08:20:42;13.38;;;4.93;;
35434;SDS011;21556;55.782;37.528;2023-04-25T08:23:11;15.88;;;5.82;;
35434;SDS011;21556;55.782;37.528;2023-04-25T08:26:01;14.65;;;5.28;;
35434;SDS011;21556;55.782;37.528;2023-04-25T08:28:33;9.90;;;5.38;;
35434;SDS011;21556;55.782;37.528;2023-04-25T08:31:01;10.07;;;5.18;;
35434;SDS011;21556;55.782;37.528;2023-04-25T08:33:34;17.20;;;6.30;;
35434;SDS011;21556;55.782;37.528;2023-04-25T08:36:21;10.73;;;4.90;;
35434;SDS011;21556;55.782;37.528;2023-04-25T08:38:47;11.27;;;4.65;;
35434;SDS011;21556;55.782;37.528;2023-04-25T08:41:17;12.98;;;5.00;;
35434;SDS011;21556;55.782;37.528;2023-04-25T08:43:46;12.20;;;4.65;;
35434;SDS011;21556;55.782;37.528;2023-04-25T08:46:16;11.50;;;4.45;;
35434;SDS011;21556;55.782;37.528;2023-04-25T08:48:56;17.25;;;4.80;;
35434;SDS011;21556;55.782;37.528;2023-04-25T08:51:27;11.05;;;4.75;;
35434;SDS011;21556;55.782;37.528;2023-04-25T08:54:04;13.60;;;5.43;;
35434;SDS011;21556;55.782;37.528;2023-04-25T08:56:38;16.92;;;4.43;;
35434;SDS011;21556;55.782;37.528;2023-04-25T08:59:14;12.05;;;4.03;;
35434;SDS011;21556;55.782;37.528;2023-04-25T09:01:44;10.68;;;4.40;;
35434;SDS011;21556;55.782;37.528;2023-04-25T09:04:12;8.07;;;3.80;;
35434;SDS011;21556;55.782;37.528;2023-04-25T09:06:41;7.45;;;3.47;;
35434;SDS011;21556;55.782;37.528;2023-04-25T09:11:36;7.68;;;3.45;;
35434;SDS011;21556;55.782;37.528;2023-04-25T09:14:17;10.27;;;3.70;;
35434;SDS011;21556;55.782;37.528;2023-04-25T09:17:09;9.05;;;3.88;;
35434;SDS011;21556;55.782;37.528;2023-04-25T09:19:45;9.25;;;4.07;;
35434;SDS011;21556;55.782;37.528;2023-04-25T09:22:23;9.07;;;3.90;;
35434;SDS011;21556;55.782;37.528;2023-04-25T09:24:50;13.75;;;4.05;;
35434;SDS011;21556;55.782;37.528;2023-04-25T09:27:21;10.10;;;4.00;;
35434;SDS011;21556;55.782;37.528;2023-04-25T09:29:57;6.85;;;3.55;;
35434;SDS011;21556;55.782;37.528;2023-04-25T09:32:31;8.63;;;3.70;;
35434;SDS011;21556;55.782;37.528;2023-04-25T09:34:57;8.77;;;3.75;;
35434;SDS011;21556;55.782;37.528;2023-04-25T09:37:29;8.82;;;3.60;;
35434;SDS011;21556;55.782;37.528;2023-04-25T09:40:05;7.30;;;3.63;;
35434;SDS011;21556;55.782;37.528;2023-04-25T09:42:48;8.45;;;3.50;;
35434;SDS011;21556;55.782;37.528;2023-04-25T09:45:16;9.00;;;3.13;;
35434;SDS011;21556;55.782;37.528;2023-04-25T09:47:50;6.75;;;3.70;;
35434;SDS011;21556;55.782;37.528;2023-04-25T09:50:31;9.57;;;4.18;;
35434;SDS011;21556;55.782;37.528;2023-04-25T09:53:33;10.05;;;4.70;;
35434;SDS011;21556;55.782;37.528;2023-04-25T09:56:16;9.27;;;4.82;;
35434;SDS011;21556;55.782;37.528;2023-04-25T09:58:47;5.85;;;3.88;;
35434;SDS011;21556;55.782;37.528;2023-04-25T10:01:17;9.77;;;5.20;;
35434;SDS011;21556;55.782;37.528;2023-04-25T10:04:12;7.60;;;5.47;;
35434;SDS011;21556;55.782;37.528;2023-04-25T10:06:52;7.93;;;5.32;;
35434;SDS011;21556;55.782;37.528;2023-04-25T10:09:21;8.75;;;5.07;;
35434;SDS011;21556;55.782;37.528;2023-04-25T10:11:55;8.80;;;5.28;;
35434;SDS011;21556;55.782;37.528;2023-04-25T10:14:22;9.40;;;5.32;;
35434;SDS011;21556;55.782;37.528;2023-04-25T10:16:51;6.70;;;4.82;;
35434;SDS011;21556;55.782;37.528;2023-04-25T10:19:21;8.65;;;5.30;;
35434;SDS011;21556;55.782;37.528;2023-04-25T10:21:51;11.57;;;5.03;;
35434;SDS011;21556;55.782;37.528;2023-04-25T10:24:29;11.50;;;5.20;;
35434;SDS011;21556;55.782;37.528;2023-04-25T10:27:00;9.13;;;5.07;;
35434;SDS011;21556;55.782;37.528;2023-04-25T10:29:27;9.05;;;5.30;;
35434;SDS011;21556;55.782;37.528;2023-04-25T10:31:53;9.88;;;5.50;;
35434;SDS011;21556;55.782;37.528;2023-04-25T10:34:41;9.65;;;5.13;;
35434;SDS011;21556;55.782;37.528;2023-04-25T10:37:15;14.10;;;4.82;;
35434;SDS011;21556;55.782;37.528;2023-04-25T10:39:44;8.98;;;4.78;;
35434;SDS011;21556;55.782;37.528;2023-04-25T10:42:15;10.30;;;4.93;;
35434;SDS011;21556;55.782;37.528;2023-04-25T10:45:00;11.63;;;5.25;;
35434;SDS011;21556;55.782;37.528;2023-04-25T10:47:36;9.00;;;4.15;;
35434;SDS011;21556;55.782;37.528;2023-04-25T10:50:06;8.20;;;3.97;;
35434;SDS011;21556;55.782;37.528;2023-04-25T10:52:34;10.65;;;4.95;;
35434;SDS011;21556;55.782;37.528;2023-04-25T10:55:02;8.27;;;3.80;;
35434;SDS011;21556;55.782;37.528;2023-04-25T10:57:31;7.03;;;3.20;;
35434;SDS011;21556;55.782;37.528;2023-04-25T11:05:33;5.60;;;2.67;;
35434;SDS011;21556;55.782;37.528;2023-04-25T11:08:01;5.82;;;3.05;;
35434;SDS011;21556;55.782;37.528;2023-04-25T11:10:35;7.68;;;3.03;;
35434;SDS011;21556;55.782;37.528;2023-04-25T11:13:01;7.18;;;2.88;;
35434;SDS011;21556;55.782;37.528;2023-04-25T11:15:28;6.20;;;3.25;;
35434;SDS011;21556;55.782;37.528;2023-04-25T11:17:55;8.77;;;2.40;;
35434;SDS011;21556;55.782;37.528;2023-04-25T11:20:22;3.95;;;3.22;;
35434;SDS011;21556;55.782;37.528;2023-04-25T11:22:51;6.22;;;2.63;;
35434;SDS011;21556;55.782;37.528;2023-04-25T11:25:19;3.33;;;2.40;;
35434;SDS011;21556;55.782;37.528;2023-04-25T11:27:51;4.88;;;2.65;;
35434;SDS011;21556;55.782;37.528;2023-04-25T11:30:22;5.53;;;2.30;;
35434;SDS011;21556;55.782;37.528;2023-04-25T11:32:50;6.43;;;2.13;;
35434;SDS011;21556;55.782;37.528;2023-04-25T11:35:19;2.58;;;2.28;;
35434;SDS011;21556;55.782;37.528;2023-04-25T11:37:46;8.20;;;3.00;;
35434;SDS011;21556;55.782;37.528;2023-04-25T11:40:13;6.27;;;3.03;;
35434;SDS011;21556;55.782;37.528;2023-04-25T11:42:44;4.85;;;2.55;;
35434;SDS011;21556;55.782;37.528;2023-04-25T11:45:13;4.13;;;2.75;;
35434;SDS011;21556;55.782;37.528;2023-04-25T11:47:40;3.50;;;2.78;;
35434;SDS011;21556;55.782;37.528;2023-04-25T11:50:09;4.90;;;2.72;;
35434;SDS011;21556;55.782;37.528;2023-04-25T11:52:40;6.82;;;3.65;;
35434;SDS011;21556;55.782;37.528;2023-04-25T11:55:18;8.45;;;3.40;;
35434;SDS011;21556;55.782;37.528;2023-04-25T11:57:48;9.98;;;2.88;;
35434;SDS011;21556;55.782;37.528;2023-04-25T12:00:17;6.43;;;3.03;;
35434;SDS011;21556;55.782;37.528;2023-04-25T12:02:52;5.63;;;3.05;;
35434;SDS011;21556;55.782;37.528;2023-04-25T12:05:25;4.38;;;2.78;;
35434;SDS011;21556;55.782;37.528;2023-04-25T12:07:57;7.47;;;2.58;;
35434;SDS011;21556;55.782;37.528;2023-04-25T12:10:24;7.25;;;3.17;;
35434;SDS011;21556;55.782;37.528;2023-04-25T12:12:51;7.70;;;2.90;;
35434;SDS011;21556;55.782;37.528;2023-04-25T12:15:25;5.05;;;2.70;;
35434;SDS011;21556;55.782;37.528;2023-04-25T12:17:52;6.30;;;2.70;;
35434;SDS011;21556;55.782;37.528;2023-04-25T12:20:20;8.98;;;2.90;;
35434;SDS011;21556;55.782;37.528;2023-04-25T12:22:49;8.95;;;2.95;;
35434;SDS011;21556;55.782;37.528;2023-04-25T12:28:22;4.18;;;2.88;;
35434;SDS011;21556;55.782;37.528;2023-04-25T12:30:57;5.30;;;2.78;;
35434;SDS011;21556;55.782;37.528;2023-04-25T12:33:28;5.13;;;3.00;;
35434;SDS011;21556;55.782;37.528;2023-04-25T12:35:56;6.97;;;3.20;;
35434;SDS011;21556;55.782;37.528;2023-04-25T12:38:30;5.18;;;2.90;;
35434;SDS011;21556;55.782;37.528;2023-04-25T12:41:01;8.73;;;2.72;;
35434;SDS011;21556;55.782;37.528;2023-04-25T12:43:28;5.05;;;3.10;;
35434;SDS011;21556;55.782;37.528;2023-04-25T12:45:54;7.90;;;3.45;;
35434;SDS011;21556;55.782;37.528;2023-04-25T12:48:23;6.38;;;2.58;;
35434;SDS011;21556;55.782;37.528;2023-04-25T12:50:50;10.98;;;3.60;;
35434;SDS011;21556;55.782;37.528;2023-04-25T12:53:21;7.72;;;3.45;;
35434;SDS011;21556;55.782;37.528;2023-04-25T12:55:54;5.47;;;3.17;;
35434;SDS011;21556;55.782;37.528;2023-04-25T12:58:26;7.30;;;2.88;;
35434;SDS011;21556;55.782;37.528;2023-04-25T13:00:56;7.20;;;2.67;;
35434;SDS011;21556;55.782;37.528;2023-04-25T13:03:22;4.32;;;2.65;;
35434;SDS011;21556;55.782;37.528;2023-04-25T13:05:48;8.32;;;2.72;;
35434;SDS011;21556;55.782;37.528;2023-04-25T13:08:17;6.30;;;2.63;;
35434;SDS011;21556;55.782;37.528;2023-04-25T13:10:44;6.70;;;2.78;;
35434;SDS011;21556;55.782;37.528;2023-04-25T13:13:10;9.25;;;3.15;;
35434;SDS011;21556;55.782;37.528;2023-04-25T13:15:37;6.13;;;2.80;;
35434;SDS011;21556;55.782;37.528;2023-04-25T13:18:06;8.10;;;3.17;;
35434;SDS011;21556;55.782;37.528;2023-04-25T13:20:34;9.00;;;3.25;;
35434;SDS011;21556;55.782;37.528;2023-04-25T13:23:01;9.88;;;3.20;;
35434;SDS011;21556;55.782;37.528;2023-04-25T13:25:30;5.43;;;3.20;;
35434;SDS011;21556;55.782;37.528;2023-04-25T13:27:57;8.15;;;3.00;;
35434;SDS011;21556;55.782;37.528;2023-04-25T13:30:23;12.15;;;3.78;;
35434;SDS011;21556;55.782;37.528;2023-04-25T13:32:49;6.43;;;2.97;;
35434;SDS011;21556;55.782;37.528;2023-04-25T13:35:16;8.45;;;3.10;;
35434;SDS011;21556;55.782;37.528;2023-04-25T13:37:43;4.97;;;2.83;;
35434;SDS011;21556;55.782;37.528;2023-04-25T13:40:10;8.80;;;2.97;;
35434;SDS011;21556;55.782;37.528;2023-04-25T13:42:37;8.15;;;2.72;;
35434;SDS011;21556;55.782;37.528;2023-04-25T13:45:05;5.75;;;3.10;;
35434;SDS011;21556;55.782;37.528;2023-04-25T13:47:34;5.35;;;3.05;;
35434;SDS011;21556;55.782;37.528;2023-04-25T13:52:29;7.35;;;3.53;;
35434;SDS011;21556;55.782;37.528;2023-04-25T13:54:59;13.80;;;3.50;;
35434;SDS011;21556;55.782;37.528;2023-04-25T13:57:25;6.25;;;3.15;;
35434;SDS011;21556;55.782;37.528;2023-04-25T14:02:46;3.88;;;2.33;;
35434;SDS011;21556;55.782;37.528;2023-04-25T14:05:18;4.65;;;3.08;;
35434;SDS011;21556;55.782;37.528;2023-04-25T14:07:55;7.05;;;3.13;;
35434;SDS011;21556;55.782;37.528;2023-04-25T14:10:21;8.07;;;2.97;;
35434;SDS011;21556;55.782;37.528;2023-04-25T14:12:48;9.02;;;3.15;;
35434;SDS011;21556;55.782;37.528;2023-04-25T14:15:16;9.75;;;3.63;;
35434;SDS011;21556;55.782;37.528;2023-04-25T14:17:42;7.87;;;3.40;;
35434;SDS011;21556;55.782;37.528;2023-04-25T14:20:08;5.95;;;3.42;;
35434;SDS011;21556;55.782;37.528;2023-04-25T14:25:02;5.25;;;3.00;;
35434;SDS011;21556;55.782;37.528;2023-04-25T14:27:29;7.13;;;2.93;;
35434;SDS011;21556;55.782;37.528;2023-04-25T14:29:58;6.22;;;2.88;;
35434;SDS011;21556;55.782;37.528;2023-04-25T14:32:24;6.85;;;2.95;;
35434;SDS011;21556;55.782;37.528;2023-04-25T14:34:52;6.03;;;2.53;;
35434;SDS011;21556;55.782;37.528;2023-04-25T14:37:20;4.82;;;2.78;;
35434;SDS011;21556;55.782;37.528;2023-04-25T14:39:47;6.40;;;3.05;;
35434;SDS011;21556;55.782;37.528;2023-04-25T14:42:14;8.17;;;2.60;;
35434;SDS011;21556;55.782;37.528;2023-04-25T14:44:41;5.47;;;2.93;;
35434;SDS011;21556;55.782;37.528;2023-04-25T14:47:09;9.60;;;2.92;;
35434;SDS011;21556;55.782;37.528;2023-04-25T14:49:35;5.78;;;2.80;;
35434;SDS011;21556;55.782;37.528;2023-04-25T14:52:05;6.80;;;2.70;;
35434;SDS011;21556;55.782;37.528;2023-04-25T14:54:32;9.63;;;3.30;;
35434;SDS011;21556;55.782;37.528;2023-04-25T14:56:58;6.65;;;3.30;;
35434;SDS011;21556;55.782;37.528;2023-04-25T14:59:26;4.93;;;3.23;;
35434;SDS011;21556;55.782;37.528;2023-04-25T15:01:54;6.32;;;3.50;;
35434;SDS011;21556;55.782;37.528;2023-04-25T15:04:20;7.18;;;3.40;;
35434;SDS011;21556;55.782;37.528;2023-04-25T15:06:46;5.50;;;3.00;;
35434;SDS011;21556;55.782;37.528;2023-04-25T15:09:12;5.50;;;3.40;;